sensor_id;sensor_type;location;lat;lon;timestamp;pressure;altitude;pressure_sealevel;temperature
62930;BMP280;49036;42.782;23.108;2023-06-26T00:00:17;93824.06;;;16.65
62930;BMP280;49036;42.782;23.108;2023-06-26T00:02:42;93825.59;;;16.69
62930;BMP280;49036;42.782;23.108;2023-06-26T00:05:08;93833.41;;;16.72
62930;BMP280;49036;42.782;23.108;2023-06-26T00:07:33;93829.66;;;16.65
62930;BMP280;49036;42.782;23.108;2023-06-26T00:10:00;93832.22;;;16.77
62930;BMP280;49036;42.782;23.108;2023-06-26T00:12:26;93835.84;;;16.80
62930;BMP280;49036;42.782;23.108;2023-06-26T00:14:51;93829.63;;;16.81
62930;BMP280;49036;42.782;23.108;2023-06-26T00:17:17;93834.66;;;16.85
62930;BMP280;49036;42.782;23.108;2023-06-26T00:21:02;93829.78;;;16.85
62930;BMP280;49036;42.782;23.108;2023-06-26T00:23:27;93820.66;;;16.85
62930;BMP280;49036;42.782;23.108;2023-06-26T00:25:53;93827.63;;;16.84
62930;BMP280;49036;42.782;23.108;2023-06-26T00:28:19;93820.75;;;16.87
62930;BMP280;49036;42.782;23.108;2023-06-26T00:30:44;93813.91;;;16.92
62930;BMP280;49036;42.782;23.108;2023-06-26T00:33:10;93815.94;;;16.89
62930;BMP280;49036;42.782;23.108;2023-06-26T00:35:35;93815.22;;;16.89
62930;BMP280;49036;42.782;23.108;2023-06-26T00:38:01;93816.41;;;16.84
62930;BMP280;49036;42.782;23.108;2023-06-26T00:40:27;93810.63;;;16.80
62930;BMP280;49036;42.782;23.108;2023-06-26T00:44:20;93818.22;;;16.77
62930;BMP280;49036;42.782;23.108;2023-06-26T00:46:45;93815.91;;;16.72
62930;BMP280;49036;42.782;23.108;2023-06-26T00:49:11;93815.66;;;16.65
62930;BMP280;49036;42.782;23.108;2023-06-26T00:51:37;93810.75;;;16.66
62930;BMP280;49036;42.782;23.108;2023-06-26T00:54:03;93801.28;;;16.57
62930;BMP280;49036;42.782;23.108;2023-06-26T00:56:30;93805.84;;;16.49
62930;BMP280;49036;42.782;23.108;2023-06-26T00:58:56;93804.75;;;16.40
62930;BMP280;49036;42.782;23.108;2023-06-26T01:01:22;93804.44;;;16.32
62930;BMP280;49036;42.782;23.108;2023-06-26T01:03:51;93806.06;;;16.21
62930;BMP280;49036;42.782;23.108;2023-06-26T01:06:20;93799.38;;;16.13
62930;BMP280;49036;42.782;23.108;2023-06-26T01:08:46;93795.59;;;16.06
62930;BMP280;49036;42.782;23.108;2023-06-26T01:11:12;93796.69;;;15.99
62930;BMP280;49036;42.782;23.108;2023-06-26T01:13:39;93792.97;;;15.94
62930;BMP280;49036;42.782;23.108;2023-06-26T01:16:05;93797.22;;;15.95
62930;BMP280;49036;42.782;23.108;2023-06-26T01:18:32;93786.56;;;15.92
62930;BMP280;49036;42.782;23.108;2023-06-26T01:20:58;93786.38;;;15.88
62930;BMP280;49036;42.782;23.108;2023-06-26T01:24:02;93784.00;;;15.82
62930;BMP280;49036;42.782;23.108;2023-06-26T01:26:32;93781.66;;;15.77
62930;BMP280;49036;42.782;23.108;2023-06-26T01:29:01;93779.44;;;15.73
62930;BMP280;49036;42.782;23.108;2023-06-26T01:31:28;93781.66;;;15.77
62930;BMP280;49036;42.782;23.108;2023-06-26T01:33:57;93775.91;;;15.73
62930;BMP280;49036;42.782;23.108;2023-06-26T01:36:23;93778.50;;;15.69
62930;BMP280;49036;42.782;23.108;2023-06-26T01:38:48;93782.84;;;15.72
62930;BMP280;49036;42.782;23.108;2023-06-26T01:41:14;93777.53;;;15.78
62930;BMP280;49036;42.782;23.108;2023-06-26T01:44:03;93779.88;;;15.83
62930;BMP280;49036;42.782;23.108;2023-06-26T01:49:24;93772.66;;;15.78
62930;BMP280;49036;42.782;23.108;2023-06-26T01:54:53;93760.22;;;15.66
62930;BMP280;49036;42.782;23.108;2023-06-26T01:57:20;93762.81;;;15.61
62930;BMP280;49036;42.782;23.108;2023-06-26T01:59:48;93768.03;;;15.53
62930;BMP280;49036;42.782;23.108;2023-06-26T02:02:15;93772.19;;;15.52
62930;BMP280;49036;42.782;23.108;2023-06-26T02:04:41;93772.28;;;15.54
62930;BMP280;49036;42.782;23.108;2023-06-26T02:07:06;93763.06;;;15.52
62930;BMP280;49036;42.782;23.108;2023-06-26T02:09:32;93766.94;;;15.45
62930;BMP280;49036;42.782;23.108;2023-06-26T02:11:57;93767.41;;;15.39
62930;BMP280;49036;42.782;23.108;2023-06-26T02:14:23;93764.81;;;15.29
62930;BMP280;49036;42.782;23.108;2023-06-26T02:17:38;93760.69;;;15.30
62930;BMP280;49036;42.782;23.108;2023-06-26T02:20:04;93757.25;;;15.32
62930;BMP280;49036;42.782;23.108;2023-06-26T02:22:31;93757.97;;;15.33
62930;BMP280;49036;42.782;23.108;2023-06-26T02:24:56;93766.84;;;15.43
62930;BMP280;49036;42.782;23.108;2023-06-26T02:27:21;93758.81;;;15.51
62930;BMP280;49036;42.782;23.108;2023-06-26T02:29:47;93759.75;;;15.55
62930;BMP280;49036;42.782;23.108;2023-06-26T02:32:12;93767.41;;;15.55
62930;BMP280;49036;42.782;23.108;2023-06-26T02:34:38;93760.72;;;15.62
62930;BMP280;49036;42.782;23.108;2023-06-26T02:37:04;93759.38;;;15.63
62930;BMP280;49036;42.782;23.108;2023-06-26T02:39:33;93763.34;;;15.58
62930;BMP280;49036;42.782;23.108;2023-06-26T02:41:59;93768.75;;;15.54
62930;BMP280;49036;42.782;23.108;2023-06-26T02:44:25;93763.81;;;15.52
62930;BMP280;49036;42.782;23.108;2023-06-26T02:46:50;93765.50;;;15.44
62930;BMP280;49036;42.782;23.108;2023-06-26T02:49:24;93766.66;;;15.39
62930;BMP280;49036;42.782;23.108;2023-06-26T02:51:49;93770.06;;;15.37
62930;BMP280;49036;42.782;23.108;2023-06-26T02:54:57;93767.91;;;15.36
62930;BMP280;49036;42.782;23.108;2023-06-26T02:57:22;93769.16;;;15.33
62930;BMP280;49036;42.782;23.108;2023-06-26T02:59:48;93762.69;;;15.28
62930;BMP280;49036;42.782;23.108;2023-06-26T03:02:13;93764.63;;;15.25
62930;BMP280;49036;42.782;23.108;2023-06-26T03:04:39;93759.50;;;15.20
62930;BMP280;49036;42.782;23.108;2023-06-26T03:07:04;93765.09;;;15.20
62930;BMP280;49036;42.782;23.108;2023-06-26T03:09:30;93765.34;;;15.26
62930;BMP280;49036;42.782;23.108;2023-06-26T03:11:55;93766.81;;;15.27
62930;BMP280;49036;42.782;23.108;2023-06-26T03:14:21;93778.91;;;15.32
62930;BMP280;49036;42.782;23.108;2023-06-26T03:16:47;93767.28;;;15.37
62930;BMP280;49036;42.782;23.108;2023-06-26T03:19:12;93771.63;;;15.40
62930;BMP280;49036;42.782;23.108;2023-06-26T03:21:38;93759.25;;;15.45
62930;BMP280;49036;42.782;23.108;2023-06-26T03:24:04;93758.75;;;15.49
62930;BMP280;49036;42.782;23.108;2023-06-26T03:26:29;93765.88;;;15.52
62930;BMP280;49036;42.782;23.108;2023-06-26T03:28:55;93766.59;;;15.52
62930;BMP280;49036;42.782;23.108;2023-06-26T03:31:20;93762.59;;;15.57
62930;BMP280;49036;42.782;23.108;2023-06-26T03:33:46;93776.28;;;15.65
62930;BMP280;49036;42.782;23.108;2023-06-26T03:36:12;93768.16;;;15.71
62930;BMP280;49036;42.782;23.108;2023-06-26T03:38:37;93772.94;;;15.84
62930;BMP280;49036;42.782;23.108;2023-06-26T03:41:03;93776.28;;;15.96
62930;BMP280;49036;42.782;23.108;2023-06-26T03:43:28;93769.13;;;16.09
62930;BMP280;49036;42.782;23.108;2023-06-26T03:45:54;93764.78;;;16.22
62930;BMP280;49036;42.782;23.108;2023-06-26T03:48:20;93764.69;;;16.36
62930;BMP280;49036;42.782;23.108;2023-06-26T03:50:45;93766.03;;;16.52
62930;BMP280;49036;42.782;23.108;2023-06-26T03:53:11;93760.88;;;16.62
62930;BMP280;49036;42.782;23.108;2023-06-26T03:57:10;93765.78;;;16.80
62930;BMP280;49036;42.782;23.108;2023-06-26T04:00:56;93763.72;;;16.98
62930;BMP280;49036;42.782;23.108;2023-06-26T04:03:23;93765.56;;;17.09
62930;BMP280;49036;42.782;23.108;2023-06-26T04:05:49;93767.41;;;17.20
62930;BMP280;49036;42.782;23.108;2023-06-26T04:08:14;93765.09;;;17.32
62930;BMP280;49036;42.782;23.108;2023-06-26T04:10:40;93782.38;;;17.45
62930;BMP280;49036;42.782;23.108;2023-06-26T04:13:05;93779.22;;;17.54
62930;BMP280;49036;42.782;23.108;2023-06-26T04:15:30;93784.31;;;17.78
62930;BMP280;49036;42.782;23.108;2023-06-26T04:17:56;93782.97;;;17.98
62930;BMP280;49036;42.782;23.108;2023-06-26T04:20:21;93781.59;;;18.19
62930;BMP280;49036;42.782;23.108;2023-06-26T04:22:47;93782.94;;;18.38
62930;BMP280;49036;42.782;23.108;2023-06-26T04:25:12;93786.47;;;18.38
62930;BMP280;49036;42.782;23.108;2023-06-26T04:27:38;93783.38;;;18.50
62930;BMP280;49036;42.782;23.108;2023-06-26T04:30:04;93784.09;;;18.31
62930;BMP280;49036;42.782;23.108;2023-06-26T04:32:30;93791.88;;;18.32
62930;BMP280;49036;42.782;23.108;2023-06-26T04:34:56;93789.91;;;18.35
62930;BMP280;49036;42.782;23.108;2023-06-26T04:37:22;93797.91;;;18.45
62930;BMP280;49036;42.782;23.108;2023-06-26T04:39:47;93793.00;;;18.65
62930;BMP280;49036;42.782;23.108;2023-06-26T04:42:13;93792.75;;;18.78
62930;BMP280;49036;42.782;23.108;2023-06-26T04:44:39;93793.50;;;18.59
62930;BMP280;49036;42.782;23.108;2023-06-26T04:47:06;93787.09;;;18.35
62930;BMP280;49036;42.782;23.108;2023-06-26T04:49:31;93792.31;;;18.05
62930;BMP280;49036;42.782;23.108;2023-06-26T04:51:57;93795.13;;;18.05
62930;BMP280;49036;42.782;23.108;2023-06-26T04:54:43;93800.03;;;18.04
62930;BMP280;49036;42.782;23.108;2023-06-26T04:57:09;93801.31;;;18.01
62930;BMP280;49036;42.782;23.108;2023-06-26T04:59:35;93801.25;;;17.99
62930;BMP280;49036;42.782;23.108;2023-06-26T05:02:00;93800.03;;;18.04
62930;BMP280;49036;42.782;23.108;2023-06-26T05:04:25;93796.88;;;17.94
62930;BMP280;49036;42.782;23.108;2023-06-26T05:06:51;93796.13;;;18.14
62930;BMP280;49036;42.782;23.108;2023-06-26T05:09:16;93797.69;;;18.17
62930;BMP280;49036;42.782;23.108;2023-06-26T05:11:42;93798.00;;;18.27
62930;BMP280;49036;42.782;23.108;2023-06-26T05:14:07;93798.84;;;18.51
62930;BMP280;49036;42.782;23.108;2023-06-26T05:16:34;93797.06;;;18.60
62930;BMP280;49036;42.782;23.108;2023-06-26T05:19:00;93796.72;;;18.71
62930;BMP280;49036;42.782;23.108;2023-06-26T05:21:25;93804.31;;;18.89
62930;BMP280;49036;42.782;23.108;2023-06-26T05:23:52;93796.09;;;19.40
62930;BMP280;49036;42.782;23.108;2023-06-26T05:26:19;93799.38;;;19.31
62930;BMP280;49036;42.782;23.108;2023-06-26T05:28:45;93802.50;;;19.19
62930;BMP280;49036;42.782;23.108;2023-06-26T05:31:14;93807.34;;;18.95
62930;BMP280;49036;42.782;23.108;2023-06-26T05:33:43;93811.00;;;18.77
62930;BMP280;49036;42.782;23.108;2023-06-26T05:36:09;93813.72;;;18.75
62930;BMP280;49036;42.782;23.108;2023-06-26T05:38:35;93810.91;;;18.75
62930;BMP280;49036;42.782;23.108;2023-06-26T05:41:01;93816.50;;;18.73
62930;BMP280;49036;42.782;23.108;2023-06-26T05:43:26;93817.66;;;18.66
62930;BMP280;49036;42.782;23.108;2023-06-26T05:45:52;93810.53;;;18.85
62930;BMP280;49036;42.782;23.108;2023-06-26T05:48:17;93815.13;;;18.96
62930;BMP280;49036;42.782;23.108;2023-06-26T05:50:43;93820.38;;;19.06
62930;BMP280;49036;42.782;23.108;2023-06-26T05:53:09;93822.91;;;19.20
62930;BMP280;49036;42.782;23.108;2023-06-26T05:55:35;93809.31;;;19.36
62930;BMP280;49036;42.782;23.108;2023-06-26T05:58:02;93815.69;;;19.36
62930;BMP280;49036;42.782;23.108;2023-06-26T06:00:28;93812.47;;;19.46
62930;BMP280;49036;42.782;23.108;2023-06-26T06:02:54;93819.59;;;19.49
62930;BMP280;49036;42.782;23.108;2023-06-26T06:05:23;93818.19;;;19.72
62930;BMP280;49036;42.782;23.108;2023-06-26T06:07:49;93824.53;;;19.96
62930;BMP280;49036;42.782;23.108;2023-06-26T06:11:06;93822.13;;;20.64
62930;BMP280;49036;42.782;23.108;2023-06-26T06:13:32;93809.13;;;21.09
62930;BMP280;49036;42.782;23.108;2023-06-26T06:17:32;93818.28;;;21.37
62930;BMP280;49036;42.782;23.108;2023-06-26T06:19:58;93809.34;;;21.17
62930;BMP280;49036;42.782;23.108;2023-06-26T06:22:23;93807.19;;;20.85
62930;BMP280;49036;42.782;23.108;2023-06-26T06:25:58;93813.47;;;20.84
62930;BMP280;49036;42.782;23.108;2023-06-26T06:28:24;93815.03;;;21.19
62930;BMP280;49036;42.782;23.108;2023-06-26T06:30:49;93816.63;;;21.58
62930;BMP280;49036;42.782;23.108;2023-06-26T06:33:15;93810.50;;;21.67
62930;BMP280;49036;42.782;23.108;2023-06-26T06:35:40;93820.03;;;21.86
62930;BMP280;49036;42.782;23.108;2023-06-26T06:38:06;93813.47;;;22.12
62930;BMP280;49036;42.782;23.108;2023-06-26T06:40:31;93809.66;;;21.97
62930;BMP280;49036;42.782;23.108;2023-06-26T06:42:57;93816.63;;;21.58
62930;BMP280;49036;42.782;23.108;2023-06-26T06:45:22;93809.69;;;21.65
62930;BMP280;49036;42.782;23.108;2023-06-26T06:47:48;93819.34;;;21.22
62930;BMP280;49036;42.782;23.108;2023-06-26T06:50:13;93813.50;;;21.14
62930;BMP280;49036;42.782;23.108;2023-06-26T06:52:42;93818.66;;;21.23
62930;BMP280;49036;42.782;23.108;2023-06-26T06:55:08;93814.88;;;21.43
62930;BMP280;49036;42.782;23.108;2023-06-26T06:57:38;93819.25;;;21.50
62930;BMP280;49036;42.782;23.108;2023-06-26T07:00:09;93809.81;;;21.37
62930;BMP280;49036;42.782;23.108;2023-06-26T07:02:39;93810.91;;;21.24
62930;BMP280;49036;42.782;23.108;2023-06-26T07:05:05;93809.94;;;21.43
62930;BMP280;49036;42.782;23.108;2023-06-26T07:07:33;93812.50;;;21.63
62930;BMP280;49036;42.782;23.108;2023-06-26T07:10:01;93803.47;;;21.70
62930;BMP280;49036;42.782;23.108;2023-06-26T07:12:26;93804.75;;;21.63
62930;BMP280;49036;42.782;23.108;2023-06-26T07:14:52;93803.28;;;21.94
62930;BMP280;49036;42.782;23.108;2023-06-26T07:17:19;93797.19;;;22.08
62930;BMP280;49036;42.782;23.108;2023-06-26T07:19:45;93806.63;;;22.21
62930;BMP280;49036;42.782;23.108;2023-06-26T07:22:11;93799.13;;;22.37
62930;BMP280;49036;42.782;23.108;2023-06-26T07:24:37;93800.53;;;22.36
62930;BMP280;49036;42.782;23.108;2023-06-26T07:27:02;93796.25;;;22.33
62930;BMP280;49036;42.782;23.108;2023-06-26T07:29:28;93799.19;;;22.81
62930;BMP280;49036;42.782;23.108;2023-06-26T07:31:53;93811.03;;;22.70
62930;BMP280;49036;42.782;23.108;2023-06-26T07:34:19;93803.53;;;22.44
62930;BMP280;49036;42.782;23.108;2023-06-26T07:36:44;93798.81;;;22.21
62930;BMP280;49036;42.782;23.108;2023-06-26T07:39:10;93805.50;;;22.00
62930;BMP280;49036;42.782;23.108;2023-06-26T07:41:36;93805.41;;;21.62
62930;BMP280;49036;42.782;23.108;2023-06-26T07:44:02;93804.09;;;21.35
62930;BMP280;49036;42.782;23.108;2023-06-26T07:46:27;93805.94;;;21.54
62930;BMP280;49036;42.782;23.108;2023-06-26T07:48:53;93814.94;;;21.79
62930;BMP280;49036;42.782;23.108;2023-06-26T07:52:37;93814.56;;;21.60
62930;BMP280;49036;42.782;23.108;2023-06-26T07:55:03;93808.69;;;21.84
62930;BMP280;49036;42.782;23.108;2023-06-26T07:57:29;93807.50;;;22.31
62930;BMP280;49036;42.782;23.108;2023-06-26T08:02:06;93808.31;;;22.76
62930;BMP280;49036;42.782;23.108;2023-06-26T08:06:05;93811.91;;;22.40
62930;BMP280;49036;42.782;23.108;2023-06-26T08:08:30;93810.66;;;22.12
62930;BMP280;49036;42.782;23.108;2023-06-26T08:10:56;93811.13;;;22.36
62930;BMP280;49036;42.782;23.108;2023-06-26T08:13:21;93807.44;;;22.67
62930;BMP280;49036;42.782;23.108;2023-06-26T08:15:46;93800.59;;;22.40
62930;BMP280;49036;42.782;23.108;2023-06-26T08:18:12;93804.09;;;22.77
62930;BMP280;49036;42.782;23.108;2023-06-26T08:20:37;93804.66;;;23.13
62930;BMP280;49036;42.782;23.108;2023-06-26T08:24:41;93798.91;;;23.57
62930;BMP280;49036;42.782;23.108;2023-06-26T08:27:06;93789.50;;;23.41
62930;BMP280;49036;42.782;23.108;2023-06-26T08:29:33;93811.19;;;23.24
62930;BMP280;49036;42.782;23.108;2023-06-26T08:31:58;93807.41;;;23.07
62930;BMP280;49036;42.782;23.108;2023-06-26T08:34:24;93809.41;;;23.47
62930;BMP280;49036;42.782;23.108;2023-06-26T08:36:50;93805.19;;;23.52
62930;BMP280;49036;42.782;23.108;2023-06-26T08:39:15;93806.22;;;23.23
62930;BMP280;49036;42.782;23.108;2023-06-26T08:41:41;93808.97;;;22.72
62930;BMP280;49036;42.782;23.108;2023-06-26T08:44:07;93805.16;;;23.02
62930;BMP280;49036;42.782;23.108;2023-06-26T08:46:33;93800.97;;;23.53
62930;BMP280;49036;42.782;23.108;2023-06-26T08:49:02;93807.66;;;23.76
62930;BMP280;49036;42.782;23.108;2023-06-26T08:51:33;93812.28;;;24.05
62930;BMP280;49036;42.782;23.108;2023-06-26T08:54:00;93808.66;;;24.00
62930;BMP280;49036;42.782;23.108;2023-06-26T08:56:36;93808.22;;;23.64
62930;BMP280;49036;42.782;23.108;2023-06-26T08:59:03;93797.13;;;23.30
62930;BMP280;49036;42.782;23.108;2023-06-26T09:01:30;93815.03;;;22.99
62930;BMP280;49036;42.782;23.108;2023-06-26T09:03:56;93806.03;;;23.12
62930;BMP280;49036;42.782;23.108;2023-06-26T09:07:14;93811.75;;;22.70
62930;BMP280;49036;42.782;23.108;2023-06-26T09:09:39;93802.03;;;22.81
62930;BMP280;49036;42.782;23.108;2023-06-26T09:12:05;93809.47;;;23.03
62930;BMP280;49036;42.782;23.108;2023-06-26T09:14:31;93799.72;;;22.70
62930;BMP280;49036;42.782;23.108;2023-06-26T09:16:57;93798.34;;;22.73
62930;BMP280;49036;42.782;23.108;2023-06-26T09:19:22;93792.97;;;23.37
62930;BMP280;49036;42.782;23.108;2023-06-26T09:22:47;93808.19;;;23.62
62930;BMP280;49036;42.782;23.108;2023-06-26T09:25:13;93801.94;;;23.72
62930;BMP280;49036;42.782;23.108;2023-06-26T09:27:39;93801.75;;;24.14
62930;BMP280;49036;42.782;23.108;2023-06-26T09:30:05;93803.59;;;23.91
62930;BMP280;49036;42.782;23.108;2023-06-26T09:32:35;93808.84;;;23.08
62930;BMP280;49036;42.782;23.108;2023-06-26T09:35:03;93801.78;;;23.59
62930;BMP280;49036;42.782;23.108;2023-06-26T09:37:28;93807.69;;;24.42
62930;BMP280;49036;42.782;23.108;2023-06-26T09:39:54;93796.41;;;24.46
62930;BMP280;49036;42.782;23.108;2023-06-26T09:42:20;93787.56;;;24.90
62930;BMP280;49036;42.782;23.108;2023-06-26T09:44:47;93798.91;;;24.88
62930;BMP280;49036;42.782;23.108;2023-06-26T09:47:15;93793.56;;;25.45
62930;BMP280;49036;42.782;23.108;2023-06-26T09:49:42;93793.03;;;25.73
62930;BMP280;49036;42.782;23.108;2023-06-26T09:52:08;93795.91;;;25.79
62930;BMP280;49036;42.782;23.108;2023-06-26T09:54:35;93795.84;;;25.71
62930;BMP280;49036;42.782;23.108;2023-06-26T09:57:16;93802.28;;;25.73
62930;BMP280;49036;42.782;23.108;2023-06-26T09:59:42;93793.75;;;25.75
62930;BMP280;49036;42.782;23.108;2023-06-26T10:02:10;93785.97;;;25.86
62930;BMP280;49036;42.782;23.108;2023-06-26T10:04:37;93798.81;;;26.01
62930;BMP280;49036;42.782;23.108;2023-06-26T10:07:05;93786.69;;;25.88
62930;BMP280;49036;42.782;23.108;2023-06-26T10:09:32;93789.53;;;25.94
62930;BMP280;49036;42.782;23.108;2023-06-26T10:12:01;93794.63;;;26.32
62930;BMP280;49036;42.782;23.108;2023-06-26T10:14:34;93793.22;;;26.33
62930;BMP280;49036;42.782;23.108;2023-06-26T10:17:01;93781.81;;;26.37
62930;BMP280;49036;42.782;23.108;2023-06-26T10:19:29;93781.81;;;26.23
62930;BMP280;49036;42.782;23.108;2023-06-26T10:21:58;93788.94;;;26.32
62930;BMP280;49036;42.782;23.108;2023-06-26T10:24:28;93783.25;;;26.36
62930;BMP280;49036;42.782;23.108;2023-06-26T10:26:59;93778.13;;;25.82
62930;BMP280;49036;42.782;23.108;2023-06-26T10:29:27;93782.31;;;25.59
62930;BMP280;49036;42.782;23.108;2023-06-26T10:31:57;93761.84;;;26.09
62930;BMP280;49036;42.782;23.108;2023-06-26T10:34:24;93767.47;;;25.85
62930;BMP280;49036;42.782;23.108;2023-06-26T10:36:59;93779.03;;;26.62
62930;BMP280;49036;42.782;23.108;2023-06-26T10:39:26;93774.72;;;27.01
62930;BMP280;49036;42.782;23.108;2023-06-26T10:42:35;93783.88;;;27.46
62930;BMP280;49036;42.782;23.108;2023-06-26T10:45:15;93779.59;;;27.41
62930;BMP280;49036;42.782;23.108;2023-06-26T10:49:30;93783.78;;;27.77
62930;BMP280;49036;42.782;23.108;2023-06-26T10:52:01;93774.53;;;27.72
62930;BMP280;49036;42.782;23.108;2023-06-26T10:54:29;93771.97;;;28.43
62930;BMP280;49036;42.782;23.108;2023-06-26T10:56:56;93773.72;;;28.87
62930;BMP280;49036;42.782;23.108;2023-06-26T10:59:24;93781.47;;;28.05
62930;BMP280;49036;42.782;23.108;2023-06-26T11:01:59;93761.88;;;27.06
62930;BMP280;49036;42.782;23.108;2023-06-26T11:04:44;93767.59;;;26.54
62930;BMP280;49036;42.782;23.108;2023-06-26T11:14:17;93762.25;;;28.02
62930;BMP280;49036;42.782;23.108;2023-06-26T11:16:43;93758.09;;;28.80
62930;BMP280;49036;42.782;23.108;2023-06-26T11:19:10;93766.84;;;28.58
62930;BMP280;49036;42.782;23.108;2023-06-26T11:21:37;93762.75;;;28.35
62930;BMP280;49036;42.782;23.108;2023-06-26T11:24:04;93767.44;;;27.63
62930;BMP280;49036;42.782;23.108;2023-06-26T11:26:37;93764.88;;;28.36
62930;BMP280;49036;42.782;23.108;2023-06-26T11:29:03;93760.13;;;29.57
62930;BMP280;49036;42.782;23.108;2023-06-26T11:31:33;93763.81;;;30.03
62930;BMP280;49036;42.782;23.108;2023-06-26T11:34:01;93773.66;;;28.00
62930;BMP280;49036;42.782;23.108;2023-06-26T11:36:28;93775.41;;;27.08
62930;BMP280;49036;42.782;23.108;2023-06-26T11:38:58;93763.34;;;26.75
62930;BMP280;49036;42.782;23.108;2023-06-26T11:41:26;93769.00;;;26.28
62930;BMP280;49036;42.782;23.108;2023-06-26T11:46:03;93763.25;;;25.92
62930;BMP280;49036;42.782;23.108;2023-06-26T11:48:30;93756.19;;;26.21
62930;BMP280;49036;42.782;23.108;2023-06-26T11:50:55;93759.78;;;26.54
62930;BMP280;49036;42.782;23.108;2023-06-26T11:53:21;93757.63;;;26.24
62930;BMP280;49036;42.782;23.108;2023-06-26T11:55:46;93761.13;;;25.98
62930;BMP280;49036;42.782;23.108;2023-06-26T11:58:12;93757.63;;;26.22
62930;BMP280;49036;42.782;23.108;2023-06-26T12:00:43;93751.84;;;27.34
62930;BMP280;49036;42.782;23.108;2023-06-26T12:03:09;93756.94;;;29.84
62930;BMP280;49036;42.782;23.108;2023-06-26T12:05:34;93753.16;;;30.44
62930;BMP280;49036;42.782;23.108;2023-06-26T12:08:00;93760.97;;;30.01
62930;BMP280;49036;42.782;23.108;2023-06-26T12:10:27;93756.59;;;28.85
62930;BMP280;49036;42.782;23.108;2023-06-26T12:12:53;93755.59;;;29.15
62930;BMP280;49036;42.782;23.108;2023-06-26T12:15:19;93750.72;;;30.16
62930;BMP280;49036;42.782;23.108;2023-06-26T12:17:44;93744.94;;;30.20
62930;BMP280;49036;42.782;23.108;2023-06-26T12:20:21;93748.91;;;29.37
62930;BMP280;49036;42.782;23.108;2023-06-26T12:22:47;93749.56;;;28.78
62930;BMP280;49036;42.782;23.108;2023-06-26T12:25:14;93747.75;;;29.75
62930;BMP280;49036;42.782;23.108;2023-06-26T12:27:39;93747.31;;;31.63
62930;BMP280;49036;42.782;23.108;2023-06-26T12:30:06;93745.94;;;30.88
62930;BMP280;49036;42.782;23.108;2023-06-26T12:32:31;93748.94;;;29.92
62930;BMP280;49036;42.782;23.108;2023-06-26T12:34:57;93755.78;;;28.10
62930;BMP280;49036;42.782;23.108;2023-06-26T12:37:23;93753.31;;;27.16
62930;BMP280;49036;42.782;23.108;2023-06-26T12:39:51;93755.16;;;27.93
62930;BMP280;49036;42.782;23.108;2023-06-26T12:42:19;93739.56;;;29.41
62930;BMP280;49036;42.782;23.108;2023-06-26T12:44:45;93741.94;;;31.12
62930;BMP280;49036;42.782;23.108;2023-06-26T12:47:11;93732.94;;;30.95
62930;BMP280;49036;42.782;23.108;2023-06-26T12:49:40;93742.13;;;31.02
62930;BMP280;49036;42.782;23.108;2023-06-26T12:52:14;93744.66;;;31.55
62930;BMP280;49036;42.782;23.108;2023-06-26T12:54:41;93733.78;;;31.25
62930;BMP280;49036;42.782;23.108;2023-06-26T12:57:07;93748.53;;;31.74
62930;BMP280;49036;42.782;23.108;2023-06-26T12:59:36;93743.69;;;32.30
62930;BMP280;49036;42.782;23.108;2023-06-26T13:02:01;93734.25;;;32.03
62930;BMP280;49036;42.782;23.108;2023-06-26T13:04:28;93739.94;;;31.74
62930;BMP280;49036;42.782;23.108;2023-06-26T13:06:53;93750.28;;;29.44
62930;BMP280;49036;42.782;23.108;2023-06-26T13:09:23;93753.13;;;27.67
62930;BMP280;49036;42.782;23.108;2023-06-26T13:11:49;93750.31;;;27.61
62930;BMP280;49036;42.782;23.108;2023-06-26T13:14:15;93762.50;;;27.45
62930;BMP280;49036;42.782;23.108;2023-06-26T13:16:40;93751.91;;;26.91
62930;BMP280;49036;42.782;23.108;2023-06-26T13:19:06;93741.97;;;26.31
62930;BMP280;49036;42.782;23.108;2023-06-26T13:21:55;93746.25;;;26.18
62930;BMP280;49036;42.782;23.108;2023-06-26T13:24:22;93753.22;;;25.73
62930;BMP280;49036;42.782;23.108;2023-06-26T13:26:47;93760.13;;;25.29
62930;BMP280;49036;42.782;23.108;2023-06-26T13:29:13;93755.94;;;25.48
62930;BMP280;49036;42.782;23.108;2023-06-26T13:31:38;93758.81;;;25.46
62930;BMP280;49036;42.782;23.108;2023-06-26T13:34:04;93755.19;;;25.38
62930;BMP280;49036;42.782;23.108;2023-06-26T13:36:30;93742.44;;;25.41
62930;BMP280;49036;42.782;23.108;2023-06-26T13:38:59;93736.09;;;25.52
62930;BMP280;49036;42.782;23.108;2023-06-26T13:41:25;93740.34;;;27.58
62930;BMP280;49036;42.782;23.108;2023-06-26T13:43:51;93750.84;;;28.02
62930;BMP280;49036;42.782;23.108;2023-06-26T13:47:51;93734.13;;;31.09
62930;BMP280;49036;42.782;23.108;2023-06-26T13:50:17;93732.63;;;32.10
62930;BMP280;49036;42.782;23.108;2023-06-26T13:52:42;93741.28;;;31.10
62930;BMP280;49036;42.782;23.108;2023-06-26T13:55:08;93744.03;;;30.75
62930;BMP280;49036;42.782;23.108;2023-06-26T13:57:34;93752.06;;;28.33
62930;BMP280;49036;42.782;23.108;2023-06-26T13:59:59;93742.75;;;28.33
62930;BMP280;49036;42.782;23.108;2023-06-26T14:02:25;93743.31;;;29.27
62930;BMP280;49036;42.782;23.108;2023-06-26T14:04:52;93736.75;;;31.19
62930;BMP280;49036;42.782;23.108;2023-06-26T14:07:17;93742.69;;;29.78
62930;BMP280;49036;42.782;23.108;2023-06-26T14:09:43;93743.13;;;28.74
62930;BMP280;49036;42.782;23.108;2023-06-26T14:12:08;93738.03;;;30.50
62930;BMP280;49036;42.782;23.108;2023-06-26T14:14:34;93733.16;;;31.88
62930;BMP280;49036;42.782;23.108;2023-06-26T14:16:59;93735.06;;;32.30
62930;BMP280;49036;42.782;23.108;2023-06-26T14:19:25;93733.94;;;32.46
62930;BMP280;49036;42.782;23.108;2023-06-26T14:21:51;93729.34;;;32.57
62930;BMP280;49036;42.782;23.108;2023-06-26T14:24:17;93733.97;;;32.73
62930;BMP280;49036;42.782;23.108;2023-06-26T14:26:42;93736.84;;;32.44
62930;BMP280;49036;42.782;23.108;2023-06-26T14:29:08;93735.88;;;30.03
62930;BMP280;49036;42.782;23.108;2023-06-26T14:31:34;93732.97;;;28.08